createdAt,value
2018-02-23T00:02:07.433Z,86.70
2018-02-23T00:04:34.998Z,86.70
2018-02-23T00:07:02.518Z,86.90
2018-02-23T00:09:30.055Z,87.10
2018-02-23T00:11:57.630Z,87.20
2018-02-23T00:14:25.178Z,86.90
2018-02-23T00:16:52.716Z,86.70
2018-02-23T00:19:20.281Z,87.20
2018-02-23T00:21:47.806Z,87.10
2018-02-23T00:24:15.331Z,87.10
2018-02-23T00:26:42.882Z,86.70
2018-02-23T00:29:10.433Z,86.70
2018-02-23T00:31:37.972Z,87.10
2018-02-23T00:34:05.517Z,87.00
2018-02-23T00:36:33.035Z,86.90
2018-02-23T00:39:00.603Z,86.60
2018-02-23T00:41:28.921Z,86.60
2018-02-23T00:43:56.451Z,86.70
2018-02-23T00:46:24.768Z,86.70
2018-02-23T00:48:52.331Z,86.70
2018-02-23T00:51:19.858Z,87.20
2018-02-23T00:53:47.392Z,86.80
2018-02-23T00:56:15.710Z,86.80
2018-02-23T00:58:43.228Z,86.80
2018-02-23T01:01:11.534Z,86.90
2018-02-23T01:03:39.120Z,86.90
2018-02-23T01:06:06.654Z,87.00
2018-02-23T01:08:34.193Z,87.00
2018-02-23T01:11:02.501Z,87.40
2018-02-23T01:13:30.054Z,87.40
2018-02-23T01:15:57.586Z,87.10
2018-02-23T01:18:25.913Z,87.30
2018-02-23T01:20:53.452Z,87.30
2018-02-23T01:23:20.978Z,87.20
2018-02-23T01:25:49.306Z,87.50
2018-02-23T01:28:16.831Z,87.50
2018-02-23T01:30:44.357Z,87.50
2018-02-23T01:33:12.719Z,87.40
2018-02-23T01:35:40.341Z,87.40
2018-02-23T01:38:07.869Z,87.30
2018-02-23T01:40:36.191Z,87.80
2018-02-23T01:43:03.742Z,87.80
2018-02-23T01:45:31.282Z,87.60
2018-02-23T01:47:58.831Z,87.90
2018-02-23T01:50:27.142Z,87.50
2018-02-23T01:52:54.693Z,87.50
2018-02-23T01:55:22.257Z,87.80
2018-02-23T01:57:49.776Z,87.40
2018-02-23T02:00:18.062Z,87.70
2018-02-23T02:02:46.409Z,88.00
2018-02-23T02:05:13.944Z,88.00
2018-02-23T02:07:41.493Z,88.10
2018-02-23T02:10:09.044Z,87.60
2018-02-23T02:12:36.582Z,87.90
2018-02-23T02:15:04.120Z,87.50
2018-02-23T02:17:32.456Z,87.60
2018-02-23T02:20:00.008Z,87.60
2018-02-23T02:22:27.543Z,87.30
2018-02-23T02:24:55.091Z,87.50
2018-02-23T02:27:23.407Z,87.70
2018-02-23T02:29:50.941Z,87.60
2018-02-23T02:32:18.525Z,87.70
2018-02-23T02:34:46.041Z,87.50
2018-02-23T02:37:14.336Z,87.20
2018-02-23T02:39:41.923Z,87.20
2018-02-23T02:42:09.451Z,87.20
2018-02-23T02:44:36.991Z,87.40
2018-02-23T02:47:05.317Z,87.90
2018-02-23T02:49:32.857Z,87.80
2018-02-23T02:52:00.424Z,88.00
2018-02-23T02:54:27.987Z,88.50
2018-02-23T02:56:55.507Z,88.20
2018-02-23T02:59:23.796Z,88.50
2018-02-23T03:01:51.364Z,88.40
2018-02-23T03:04:18.892Z,88.50
2018-02-23T03:06:46.431Z,88.50
2018-02-23T03:09:13.982Z,88.60
2018-02-23T03:11:41.518Z,88.50
2018-02-23T03:14:09.055Z,88.10
2018-02-23T03:16:36.634Z,87.30
2018-02-23T03:19:04.178Z,87.30
2018-02-23T03:21:31.713Z,87.40
2018-02-23T03:24:00.058Z,87.50
2018-02-23T03:26:27.603Z,87.50
2018-02-23T03:28:55.134Z,88.00
2018-02-23T03:31:22.690Z,87.50
2018-02-23T03:33:50.236Z,87.30
2018-02-23T03:36:18.553Z,87.10
2018-02-23T03:38:46.123Z,87.10
2018-02-23T03:41:13.650Z,87.00
2018-02-23T03:43:41.192Z,86.90
2018-02-23T03:46:09.527Z,87.20
2018-02-23T03:48:37.060Z,87.20
2018-02-23T03:51:04.584Z,86.60
2018-02-23T03:53:32.904Z,86.60
2018-02-23T03:56:00.463Z,86.60
2018-02-23T03:58:27.984Z,86.70
2018-02-23T04:00:56.324Z,87.40
2018-02-23T04:03:23.868Z,87.50
2018-02-23T04:05:51.425Z,87.20
2018-02-23T04:08:18.958Z,87.30
2018-02-23T04:10:46.500Z,87.50
2018-02-23T04:13:14.824Z,87.20
2018-02-23T04:15:42.355Z,87.20
2018-02-23T04:18:09.891Z,87.00
2018-02-23T04:20:38.182Z,87.50
2018-02-23T04:23:05.735Z,87.50
2018-02-23T04:25:33.292Z,87.70
2018-02-23T04:28:00.811Z,88.20
2018-02-23T04:30:28.367Z,87.80
2018-02-23T04:32:55.911Z,87.80
2018-02-23T04:35:23.459Z,87.70
2018-02-23T04:37:50.999Z,87.70
2018-02-23T04:40:18.550Z,87.70
2018-02-23T04:42:46.105Z,87.70
2018-02-23T04:45:14.413Z,87.50
2018-02-23T04:47:41.951Z,87.50
2018-02-23T04:50:09.525Z,87.90
2018-02-23T04:52:37.044Z,88.00
2018-02-23T04:55:05.348Z,88.00
2018-02-23T04:57:32.897Z,87.90
2018-02-23T05:00:00.417Z,88.40
2018-02-23T05:02:27.977Z,87.90
2018-02-23T05:04:55.536Z,88.40
2018-02-23T05:07:23.085Z,88.40
2018-02-23T05:09:50.643Z,88.20
2018-02-23T05:12:18.196Z,88.50
2018-02-23T05:14:45.796Z,88.80
2018-02-23T05:17:14.093Z,89.00
2018-02-23T05:19:41.620Z,89.00
2018-02-23T05:22:09.157Z,89.40
2018-02-23T05:24:36.695Z,89.70
2018-02-23T05:27:04.239Z,89.50
2018-02-23T05:29:31.788Z,89.60
2018-02-23T05:31:59.339Z,89.60
2018-02-23T05:34:27.646Z,89.30
2018-02-23T05:36:55.204Z,89.20
2018-02-23T05:39:22.761Z,89.30
2018-02-23T05:41:50.287Z,89.00
2018-02-23T05:44:18.578Z,89.10
2018-02-23T05:46:46.153Z,89.10
2018-02-23T05:49:13.692Z,88.80
2018-02-23T05:51:41.242Z,89.70
2018-02-23T05:54:09.551Z,89.40
2018-02-23T05:56:37.121Z,89.40
2018-02-23T05:59:04.655Z,90.00
2018-02-23T06:01:32.217Z,89.50
2018-02-23T06:03:59.737Z,90.00
2018-02-23T06:06:27.304Z,88.90
2018-02-23T06:08:55.634Z,89.60
2018-02-23T06:11:23.173Z,89.60
2018-02-23T06:13:50.752Z,89.80
2018-02-23T06:16:24.015Z,89.50
2018-02-23T06:18:57.244Z,89.70
2018-02-23T06:21:24.765Z,89.70
2018-02-23T06:23:53.105Z,89.70
2018-02-23T06:26:20.651Z,89.70
2018-02-23T06:28:48.198Z,89.50
2018-02-23T06:31:15.744Z,89.90
2018-02-23T06:33:43.284Z,89.90
2018-02-23T06:36:10.832Z,89.10
2018-02-23T06:38:39.117Z,89.30
2018-02-23T06:41:06.669Z,89.30
2018-02-23T06:43:34.976Z,89.10
2018-02-23T06:46:02.544Z,89.10
2018-02-23T06:48:30.065Z,89.10
2018-02-23T06:50:58.398Z,89.10
2018-02-23T06:53:25.933Z,89.10
2018-02-23T06:55:53.453Z,89.10
2018-02-23T06:58:21.792Z,89.20
2018-02-23T07:00:49.356Z,89.20
2018-02-23T07:03:16.915Z,89.30
2018-02-23T07:05:44.447Z,89.70
2018-02-23T07:08:12.022Z,89.80
2018-02-23T07:10:39.576Z,89.70
2018-02-23T07:13:07.128Z,89.70
2018-02-23T07:15:34.661Z,89.60
2018-02-23T07:18:02.214Z,89.70
2018-02-23T07:20:30.520Z,89.10
2018-02-23T07:22:58.065Z,89.10
2018-02-23T07:25:25.609Z,89.40
2018-02-23T07:27:53.920Z,89.60
2018-02-23T07:30:21.485Z,89.60
2018-02-23T07:32:49.784Z,89.60
2018-02-23T07:35:17.350Z,89.60
2018-02-23T07:37:44.899Z,89.60
2018-02-23T07:40:12.470Z,89.70
2018-02-23T07:42:39.998Z,89.90
2018-02-23T07:45:07.555Z,90.10
2018-02-23T07:47:35.067Z,90.10
2018-02-23T07:50:03.352Z,89.90
2018-02-23T07:52:31.668Z,89.90
2018-02-23T07:54:59.212Z,89.90
2018-02-23T07:57:26.767Z,89.50
2018-02-23T07:59:54.308Z,89.60
2018-02-23T08:02:22.624Z,90.10
2018-02-23T08:04:50.168Z,90.10
2018-02-23T08:07:17.715Z,90.10
2018-02-23T08:09:45.244Z,89.90
2018-02-23T08:12:12.796Z,90.00
2018-02-23T08:14:40.360Z,90.20
2018-02-23T08:17:08.661Z,89.70
2018-02-23T08:19:36.969Z,89.60
2018-02-23T08:22:04.499Z,89.50
2018-02-23T08:24:32.800Z,89.50
2018-02-23T08:27:00.319Z,89.50
2018-02-23T08:29:28.643Z,89.70
2018-02-23T08:31:56.163Z,89.70
2018-02-23T08:34:24.468Z,90.30
2018-02-23T08:36:52.034Z,90.30
2018-02-23T08:39:19.558Z,89.60
2018-02-23T08:41:47.874Z,89.90
2018-02-23T08:44:15.413Z,89.80
2018-02-23T08:46:42.962Z,89.80
2018-02-23T08:49:10.493Z,89.60
2018-02-23T08:51:38.069Z,89.50
2018-02-23T08:54:06.375Z,89.70
2018-02-23T08:56:33.931Z,89.70
2018-02-23T08:59:01.473Z,89.40
2018-02-23T09:01:29.009Z,89.40
2018-02-23T09:03:56.574Z,89.70
2018-02-23T09:06:24.867Z,89.30
2018-02-23T09:08:52.426Z,89.30
2018-02-23T09:11:20.716Z,90.10
2018-02-23T09:13:48.283Z,90.10
2018-02-23T09:16:15.810Z,90.00
2018-02-23T09:18:44.145Z,88.70
2018-02-23T09:21:11.668Z,88.70
2018-02-23T09:23:39.207Z,89.10
2018-02-23T09:26:07.527Z,88.50
2018-02-23T09:28:35.068Z,88.50
2018-02-23T09:31:02.616Z,87.80
2018-02-23T09:33:41.993Z,88.20
2018-02-23T09:36:09.570Z,89.00
2018-02-23T09:38:37.109Z,88.40
2018-02-23T09:41:04.642Z,88.20
2018-02-23T09:43:32.253Z,88.10
2018-02-23T09:45:59.803Z,88.60
2018-02-23T09:48:27.333Z,88.00
2018-02-23T09:50:54.885Z,88.00
2018-02-23T09:53:22.433Z,88.10
2018-02-23T09:55:49.968Z,88.50
2018-02-23T09:58:18.283Z,88.60
2018-02-23T10:00:45.811Z,88.60
2018-02-23T10:03:14.127Z,88.60
2018-02-23T10:05:41.653Z,88.50
2018-02-23T10:08:09.971Z,88.70
2018-02-23T10:10:37.506Z,88.70
2018-02-23T10:13:05.053Z,88.90
2018-02-23T10:15:33.780Z,88.40
2018-02-23T10:18:02.107Z,88.80
2018-02-23T10:20:30.414Z,88.10
2018-02-23T10:22:57.946Z,88.10
2018-02-23T10:25:26.258Z,87.80
2018-02-23T10:27:53.800Z,87.80
2018-02-23T10:30:21.348Z,87.90
2018-02-23T10:32:49.637Z,87.60
2018-02-23T10:35:17.200Z,87.60
2018-02-23T10:37:44.732Z,87.90
2018-02-23T10:40:13.058Z,88.30
2018-02-23T10:42:40.626Z,88.30
2018-02-23T10:45:08.173Z,87.30
2018-02-23T10:47:35.752Z,87.80
2018-02-23T10:50:03.271Z,87.30
2018-02-23T10:52:30.806Z,87.40
2018-02-23T10:54:59.107Z,86.80
2018-02-23T10:57:26.672Z,86.80
2018-02-23T10:59:54.205Z,87.20
2018-02-23T11:02:22.531Z,86.00
2018-02-23T11:04:50.061Z,85.90
2018-02-23T11:07:17.611Z,86.60
2018-02-23T11:09:45.190Z,85.90
2018-02-23T11:12:12.736Z,85.90
2018-02-23T11:14:40.301Z,86.50
2018-02-23T11:17:07.838Z,86.70
2018-02-23T11:19:36.157Z,85.90
2018-02-23T11:22:03.703Z,85.80
2018-02-23T11:24:31.418Z,85.70
2018-02-23T11:26:58.941Z,86.30
2018-02-23T11:29:26.497Z,86.30
2018-02-23T11:31:54.055Z,85.70
2018-02-23T11:34:21.580Z,85.50
2018-02-23T11:36:49.919Z,85.50
2018-02-23T11:39:17.485Z,85.40
2018-02-23T11:41:45.032Z,85.80
2018-02-23T11:44:12.568Z,85.70
2018-02-23T11:46:40.118Z,86.00
2018-02-23T11:49:07.653Z,86.20
2018-02-23T11:51:35.984Z,85.70
2018-02-23T11:54:03.535Z,85.70
2018-02-23T11:56:31.084Z,86.10
2018-02-23T11:58:58.639Z,85.90
2018-02-23T12:01:26.170Z,85.40
2018-02-23T12:03:53.724Z,86.10
2018-02-23T12:06:22.012Z,85.20
2018-02-23T12:08:49.570Z,85.20
2018-02-23T12:11:17.105Z,85.50
2018-02-23T12:13:45.439Z,85.60
2018-02-23T12:16:12.975Z,85.70
2018-02-23T12:18:40.535Z,84.80
2018-02-23T12:21:08.086Z,84.70
2018-02-23T12:23:35.620Z,85.10
2018-02-23T12:26:03.945Z,85.00
2018-02-23T12:28:31.474Z,84.90
2018-02-23T12:30:59.029Z,85.10
2018-02-23T12:33:27.320Z,85.50
2018-02-23T12:35:54.859Z,85.50
2018-02-23T12:38:23.187Z,84.80
2018-02-23T12:40:50.729Z,84.90
2018-02-23T12:43:18.296Z,85.10
2018-02-23T12:45:45.830Z,84.40
2018-02-23T12:48:13.389Z,84.90
2018-02-23T12:50:40.939Z,84.80
2018-02-23T12:53:09.251Z,85.50
2018-02-23T12:55:36.788Z,85.60
2018-02-23T12:58:04.330Z,85.90
2018-02-23T13:00:32.748Z,84.30
2018-02-23T13:03:00.293Z,84.40
2018-02-23T13:05:27.822Z,84.40
2018-02-23T13:07:56.114Z,84.90
2018-02-23T13:10:23.664Z,84.80
2018-02-23T13:12:51.959Z,84.30
2018-02-23T13:15:19.509Z,84.30
2018-02-23T13:17:47.066Z,84.50
2018-02-23T13:20:14.642Z,84.40
2018-02-23T13:22:42.186Z,84.90
2018-02-23T13:25:09.734Z,84.60
2018-02-23T13:27:38.032Z,83.70
2018-02-23T13:30:05.605Z,83.70
2018-02-23T13:32:33.140Z,84.90
2018-02-23T13:35:01.456Z,84.40
2018-02-23T13:37:29.010Z,84.40
2018-02-23T13:39:56.552Z,84.80
2018-02-23T13:42:25.620Z,84.40
2018-02-23T13:44:53.938Z,83.30
2018-02-23T13:47:21.485Z,83.30
2018-02-23T13:49:49.028Z,83.30
2018-02-23T13:52:18.306Z,83.40
2018-02-23T13:54:53.642Z,83.90
2018-02-23T13:57:21.203Z,83.80
2018-02-23T13:59:49.513Z,83.90
2018-02-23T14:02:17.066Z,83.90
2018-02-23T14:04:44.651Z,84.50
2018-02-23T14:07:17.807Z,83.80
2018-02-23T14:09:46.129Z,84.30
2018-02-23T14:12:13.647Z,84.30
2018-02-23T14:14:41.972Z,83.80
2018-02-23T14:17:09.524Z,83.80
2018-02-23T14:19:37.072Z,83.80
2018-02-23T14:22:04.597Z,83.70
2018-02-23T14:24:32.881Z,83.90
2018-02-23T14:27:00.416Z,84.00
2018-02-23T14:29:27.951Z,83.60
2018-02-23T14:31:55.503Z,84.40
2018-02-23T14:34:23.040Z,84.70
2018-02-23T14:36:50.612Z,85.10
2018-02-23T14:39:18.146Z,84.50
2018-02-23T14:41:45.726Z,84.40
2018-02-23T14:44:13.291Z,84.60
2018-02-23T14:46:40.840Z,84.80
2018-02-23T14:49:18.250Z,84.80
2018-02-23T14:51:45.803Z,84.80
2018-02-23T14:54:14.126Z,85.20
2018-02-23T14:56:42.446Z,84.50
2018-02-23T14:59:10.008Z,84.50
2018-02-23T15:01:37.539Z,84.80
2018-02-23T15:04:05.869Z,84.90
2018-02-23T15:06:33.389Z,84.90
2018-02-23T15:09:00.944Z,84.10
2018-02-23T15:11:28.486Z,84.50
2018-02-23T15:13:56.783Z,84.30
2018-02-23T15:16:24.340Z,84.30
2018-02-23T15:18:51.895Z,84.50
2018-02-23T15:21:19.460Z,84.70
2018-02-23T15:23:46.995Z,84.60
2018-02-23T15:26:14.585Z,85.10
2018-02-23T15:28:42.141Z,84.90
2018-02-23T15:31:21.450Z,85.00
2018-02-23T15:33:49.781Z,85.20
2018-02-23T15:36:17.331Z,85.10
2018-02-23T15:38:44.905Z,85.40
2018-02-23T15:41:12.447Z,85.20
2018-02-23T15:43:40.500Z,85.30
2018-02-23T15:46:08.049Z,86.20
2018-02-23T15:48:41.254Z,85.20
2018-02-23T15:51:23.535Z,85.20
2018-02-23T15:53:51.867Z,85.40
2018-02-23T15:56:19.390Z,85.40
2018-02-23T15:58:46.976Z,84.50
2018-02-23T16:01:14.539Z,84.60
2018-02-23T16:03:42.096Z,84.30
2018-02-23T16:06:09.663Z,84.40
2018-02-23T16:08:37.203Z,84.70
2018-02-23T16:11:04.764Z,84.90
2018-02-23T16:13:32.304Z,85.10
2018-02-23T16:15:59.870Z,85.50
2018-02-23T16:18:27.400Z,85.50
2018-02-23T16:20:55.700Z,85.20
2018-02-23T16:23:23.277Z,85.20
2018-02-23T16:25:50.818Z,84.90
2018-02-23T16:28:18.368Z,84.70
2018-02-23T16:30:45.920Z,84.60
2018-02-23T16:33:14.234Z,84.10
2018-02-23T16:35:41.760Z,84.10
2018-02-23T16:38:10.058Z,85.40
2018-02-23T16:40:37.597Z,85.40
2018-02-23T16:43:05.151Z,85.30
2018-02-23T16:45:33.478Z,84.90
2018-02-23T16:48:01.023Z,84.90
2018-02-23T16:50:28.583Z,84.60
2018-02-23T16:52:56.141Z,85.00
2018-02-23T16:55:23.713Z,85.40
2018-02-23T16:57:51.271Z,84.40
2018-02-23T17:00:18.875Z,84.80
2018-02-23T17:02:46.403Z,84.90
2018-02-23T17:05:13.947Z,85.10
2018-02-23T17:07:41.467Z,85.30
2018-02-23T17:10:09.767Z,85.60
2018-02-23T17:12:37.337Z,85.50
2018-02-23T17:15:04.899Z,85.90
2018-02-23T17:17:32.448Z,85.60
2018-02-23T17:19:59.984Z,85.50
2018-02-23T17:22:27.525Z,85.50
2018-02-23T17:24:55.824Z,85.60
2018-02-23T17:27:23.388Z,85.60
2018-02-23T17:29:51.145Z,85.50
2018-02-23T17:32:18.726Z,85.70
2018-02-23T17:34:46.287Z,85.70
2018-02-23T17:37:13.826Z,85.50
2018-02-23T17:39:41.383Z,85.70
2018-02-23T17:42:09.788Z,85.40
2018-02-23T17:44:37.347Z,85.20
2018-02-23T17:47:04.896Z,84.70
2018-02-23T17:49:32.457Z,85.00
2018-02-23T17:52:00.003Z,85.40
2018-02-23T17:54:27.592Z,84.90
2018-02-23T17:56:55.136Z,85.20
2018-02-23T17:59:22.667Z,86.10
2018-02-23T18:01:50.983Z,85.90
2018-02-23T18:04:18.515Z,85.80
2018-02-23T18:06:46.077Z,85.60
2018-02-23T18:09:13.625Z,85.80
2018-02-23T18:11:41.973Z,85.30
2018-02-23T18:14:09.511Z,85.40
2018-02-23T18:16:37.081Z,85.90
2018-02-23T18:19:04.615Z,86.10
2018-02-23T18:21:32.187Z,86.50
2018-02-23T18:23:59.711Z,86.10
2018-02-23T18:26:27.264Z,86.40
2018-02-23T18:28:54.815Z,86.60
2018-02-23T18:31:23.100Z,86.30
2018-02-23T18:33:51.427Z,86.60
2018-02-23T18:36:19.304Z,86.60
2018-02-23T18:38:46.856Z,86.40
2018-02-23T18:41:14.398Z,86.10
2018-02-23T18:43:41.943Z,86.50
2018-02-23T18:46:09.474Z,86.40
2018-02-23T18:48:37.793Z,86.50
2018-02-23T18:51:05.361Z,87.20
2018-02-23T18:53:32.910Z,86.20
2018-02-23T18:56:00.460Z,86.50
2018-02-23T18:58:28.035Z,86.80
2018-02-23T19:00:55.596Z,86.50
2018-02-23T19:03:23.116Z,86.50
2018-02-23T19:05:51.430Z,86.50
2018-02-23T19:08:18.964Z,86.60
2018-02-23T19:10:46.524Z,86.80
2018-02-23T19:13:14.068Z,86.20
2018-02-23T19:15:41.593Z,86.60
2018-02-23T19:18:09.153Z,86.90
2018-02-23T19:20:36.688Z,87.00
2018-02-23T19:23:04.230Z,87.10
2018-02-23T19:25:31.742Z,87.00
2018-02-23T19:27:59.300Z,87.00
2018-02-23T19:30:26.859Z,87.70
2018-02-23T19:32:55.197Z,86.90
2018-02-23T19:35:22.727Z,86.90
2018-02-23T19:37:50.264Z,86.50
2018-02-23T19:40:18.610Z,87.20
2018-02-23T19:42:46.139Z,87.30
2018-02-23T19:45:13.804Z,87.10
2018-02-23T19:47:41.329Z,87.10
2018-02-23T19:50:09.653Z,87.40
2018-02-23T19:52:37.181Z,87.40
2018-02-23T19:55:05.046Z,87.30
2018-02-23T19:57:32.579Z,87.30
2018-02-23T20:00:00.927Z,87.50
2018-02-23T20:02:28.467Z,87.50
2018-02-23T20:04:56.001Z,87.30
2018-02-23T20:07:23.693Z,87.40
2018-02-23T20:09:51.215Z,87.00
2018-02-23T20:12:19.525Z,87.00
2018-02-23T20:14:47.046Z,87.00
2018-02-23T20:17:15.420Z,87.40
2018-02-23T20:19:45.004Z,87.70
2018-02-23T20:22:12.774Z,87.70
2018-02-23T20:24:40.326Z,87.70
2018-02-23T20:27:07.863Z,87.60
2018-02-23T20:29:35.417Z,87.40
2018-02-23T20:32:02.952Z,87.30
2018-02-23T20:34:30.488Z,87.60
2018-02-23T20:36:58.768Z,87.30
2018-02-23T20:39:27.078Z,87.40
2018-02-23T20:41:54.614Z,87.50
2018-02-23T20:44:22.185Z,87.70
2018-02-23T20:46:49.716Z,87.40
2018-02-23T20:49:18.044Z,87.20
2018-02-23T20:51:45.573Z,87.20
2018-02-23T20:54:13.130Z,87.60
2018-02-23T20:56:40.682Z,87.50
2018-02-23T20:59:08.215Z,87.40
2018-02-23T21:01:35.828Z,87.60
2018-02-23T21:04:03.369Z,87.20
2018-02-23T21:06:30.920Z,87.20
2018-02-23T21:08:59.224Z,87.60
2018-02-23T21:11:26.787Z,87.60
2018-02-23T21:13:54.319Z,87.60
2018-02-23T21:16:21.847Z,87.60
2018-02-23T21:18:49.399Z,87.40
2018-02-23T21:21:16.931Z,87.60
2018-02-23T21:23:44.506Z,87.90
2018-02-23T21:26:12.025Z,87.50
2018-02-23T21:28:39.592Z,87.10
2018-02-23T21:31:07.128Z,86.60
2018-02-23T21:33:35.452Z,87.40
2018-02-23T21:36:03.042Z,87.40
2018-02-23T21:38:30.590Z,87.30
2018-02-23T21:40:58.168Z,86.90
2018-02-23T21:43:26.467Z,87.00
2018-02-23T21:45:54.011Z,87.00
2018-02-23T21:48:22.308Z,87.10
2018-02-23T21:50:49.857Z,87.10
2018-02-23T21:53:17.393Z,86.90
2018-02-23T21:55:45.702Z,87.00
2018-02-23T21:58:13.256Z,87.00
2018-02-23T22:00:40.805Z,86.60
2018-02-23T22:03:09.123Z,86.60
2018-02-23T22:05:36.656Z,86.60
2018-02-23T22:08:04.193Z,86.90
2018-02-23T22:10:32.487Z,87.00
2018-02-23T22:13:00.024Z,87.00
2018-02-23T22:15:28.328Z,87.20
2018-02-23T22:17:55.904Z,87.20
2018-02-23T22:20:23.423Z,87.60
2018-02-23T22:22:51.777Z,87.30
2018-02-23T22:25:19.297Z,87.30
2018-02-23T22:27:46.848Z,87.10
2018-02-23T22:30:14.405Z,87.20
2018-02-23T22:32:41.954Z,86.60
2018-02-23T22:35:09.549Z,86.80
2018-02-23T22:37:37.074Z,87.00
2018-02-23T22:40:04.649Z,87.50
2018-02-23T22:42:32.205Z,87.70
2018-02-23T22:44:59.764Z,87.50
2018-02-23T22:47:27.304Z,87.60
2018-02-23T22:49:55.603Z,87.10
2018-02-23T22:52:23.159Z,87.10
2018-02-23T22:54:50.697Z,86.60
2018-02-23T22:57:19.045Z,86.90
2018-02-23T22:59:46.588Z,86.80
2018-02-23T23:02:14.160Z,86.60
2018-02-23T23:04:41.710Z,87.20
2018-02-23T23:07:14.254Z,86.60
2018-02-23T23:09:41.783Z,86.80
2018-02-23T23:12:11.948Z,86.60
2018-02-23T23:14:41.080Z,86.60
2018-02-23T23:17:08.607Z,86.80
2018-02-23T23:19:36.154Z,87.20
2018-02-23T23:22:03.689Z,87.00
2018-02-23T23:24:32.014Z,86.30
2018-02-23T23:26:59.577Z,86.30
2018-02-23T23:29:27.127Z,86.40
2018-02-23T23:31:54.693Z,86.40
2018-02-23T23:34:22.256Z,86.90
2018-02-23T23:36:49.793Z,86.90
2018-02-23T23:39:17.362Z,86.60
2018-02-23T23:41:44.916Z,86.60
2018-02-23T23:44:12.445Z,86.90
2018-02-23T23:46:40.008Z,86.60
2018-02-23T23:49:07.529Z,86.80
2018-02-23T23:51:35.063Z,87.40
2018-02-23T23:54:02.614Z,86.90
2018-02-23T23:56:30.193Z,87.30
2018-02-23T23:58:57.723Z,87.60
